sensor_id;sensor_type;location;lat;lon;timestamp;temperature;humidity
21459;DHT22;10891;49.350;19.386;2023-06-01T00:00:55;7.20;99.90
21459;DHT22;10891;49.350;19.386;2023-06-01T00:03:22;7.20;99.90
21459;DHT22;10891;49.350;19.386;2023-06-01T00:05:53;7.10;99.90
21459;DHT22;10891;49.350;19.386;2023-06-01T00:08:20;7.10;99.90
21459;DHT22;10891;49.350;19.386;2023-06-01T00:10:48;7.10;99.90
21459;DHT22;10891;49.350;19.386;2023-06-01T00:13:15;7.10;99.90
21459;DHT22;10891;49.350;19.386;2023-06-01T00:15:42;7.20;99.90
21459;DHT22;10891;49.350;19.386;2023-06-01T00:18:09;7.10;99.90
21459;DHT22;10891;49.350;19.386;2023-06-01T00:20:38;7.00;99.90
21459;DHT22;10891;49.350;19.386;2023-06-01T00:23:06;6.90;99.90
21459;DHT22;10891;49.350;19.386;2023-06-01T00:25:34;6.70;99.90
21459;DHT22;10891;49.350;19.386;2023-06-01T00:28:01;6.70;99.90
21459;DHT22;10891;49.350;19.386;2023-06-01T00:30:28;6.60;99.90
21459;DHT22;10891;49.350;19.386;2023-06-01T00:32:55;6.60;99.90
21459;DHT22;10891;49.350;19.386;2023-06-01T00:35:22;6.60;99.90
21459;DHT22;10891;49.350;19.386;2023-06-01T00:37:49;6.50;99.90
21459;DHT22;10891;49.350;19.386;2023-06-01T00:40:17;6.40;99.90
21459;DHT22;10891;49.350;19.386;2023-06-01T00:42:44;6.30;99.90
21459;DHT22;10891;49.350;19.386;2023-06-01T00:45:11;6.30;99.90
21459;DHT22;10891;49.350;19.386;2023-06-01T00:47:40;6.30;99.90
21459;DHT22;10891;49.350;19.386;2023-06-01T00:50:09;6.40;99.90
21459;DHT22;10891;49.350;19.386;2023-06-01T00:52:37;6.40;99.90
21459;DHT22;10891;49.350;19.386;2023-06-01T00:55:05;6.50;99.90
21459;DHT22;10891;49.350;19.386;2023-06-01T00:57:34;6.50;99.90
21459;DHT22;10891;49.350;19.386;2023-06-01T01:00:02;6.50;99.90
21459;DHT22;10891;49.350;19.386;2023-06-01T01:02:35;6.50;99.90
21459;DHT22;10891;49.350;19.386;2023-06-01T01:05:03;6.50;99.90
21459;DHT22;10891;49.350;19.386;2023-06-01T01:07:42;6.40;99.90
21459;DHT22;10891;49.350;19.386;2023-06-01T01:10:19;6.30;99.90
21459;DHT22;10891;49.350;19.386;2023-06-01T01:12:54;6.30;99.90
21459;DHT22;10891;49.350;19.386;2023-06-01T01:15:32;6.40;99.90
21459;DHT22;10891;49.350;19.386;2023-06-01T01:18:03;6.40;99.90
21459;DHT22;10891;49.350;19.386;2023-06-01T01:20:35;6.30;99.90
21459;DHT22;10891;49.350;19.386;2023-06-01T01:23:15;6.30;99.90
21459;DHT22;10891;49.350;19.386;2023-06-01T01:26:15;6.10;99.90
21459;DHT22;10891;49.350;19.386;2023-06-01T01:28:49;6.10;99.90
21459;DHT22;10891;49.350;19.386;2023-06-01T01:31:19;6.00;99.90
21459;DHT22;10891;49.350;19.386;2023-06-01T01:33:50;5.90;99.90
21459;DHT22;10891;49.350;19.386;2023-06-01T01:36:19;5.90;99.90
21459;DHT22;10891;49.350;19.386;2023-06-01T01:38:47;5.90;99.90
21459;DHT22;10891;49.350;19.386;2023-06-01T01:41:14;5.90;99.90
21459;DHT22;10891;49.350;19.386;2023-06-01T01:43:41;5.90;99.90
21459;DHT22;10891;49.350;19.386;2023-06-01T01:46:20;5.90;99.90
21459;DHT22;10891;49.350;19.386;2023-06-01T01:48:52;6.00;99.90
21459;DHT22;10891;49.350;19.386;2023-06-01T01:51:26;6.00;99.90
21459;DHT22;10891;49.350;19.386;2023-06-01T01:53:55;6.00;99.90
21459;DHT22;10891;49.350;19.386;2023-06-01T01:56:23;6.00;99.90
21459;DHT22;10891;49.350;19.386;2023-06-01T01:58:52;6.00;99.90
21459;DHT22;10891;49.350;19.386;2023-06-01T02:01:21;5.80;99.90
21459;DHT22;10891;49.350;19.386;2023-06-01T02:03:58;5.80;99.90
21459;DHT22;10891;49.350;19.386;2023-06-01T02:06:25;5.80;99.90
21459;DHT22;10891;49.350;19.386;2023-06-01T02:08:52;5.80;99.90
21459;DHT22;10891;49.350;19.386;2023-06-01T02:11:19;5.70;99.90
21459;DHT22;10891;49.350;19.386;2023-06-01T02:13:46;5.70;99.90
21459;DHT22;10891;49.350;19.386;2023-06-01T02:16:13;5.70;99.90
21459;DHT22;10891;49.350;19.386;2023-06-01T02:18:43;5.60;99.90
21459;DHT22;10891;49.350;19.386;2023-06-01T02:21:11;5.60;99.90
21459;DHT22;10891;49.350;19.386;2023-06-01T02:23:38;5.60;99.90
21459;DHT22;10891;49.350;19.386;2023-06-01T02:26:06;5.60;99.90
21459;DHT22;10891;49.350;19.386;2023-06-01T02:28:33;5.70;99.90
21459;DHT22;10891;49.350;19.386;2023-06-01T02:31:00;5.70;99.90
21459;DHT22;10891;49.350;19.386;2023-06-01T02:33:28;5.70;99.90
21459;DHT22;10891;49.350;19.386;2023-06-01T02:35:56;5.70;99.90
21459;DHT22;10891;49.350;19.386;2023-06-01T02:38:23;5.70;99.90
21459;DHT22;10891;49.350;19.386;2023-06-01T02:40:50;5.70;99.90
21459;DHT22;10891;49.350;19.386;2023-06-01T02:43:17;5.70;99.90
21459;DHT22;10891;49.350;19.386;2023-06-01T02:45:44;5.50;99.90
21459;DHT22;10891;49.350;19.386;2023-06-01T02:48:11;5.50;99.90
21459;DHT22;10891;49.350;19.386;2023-06-01T02:50:38;5.50;99.90
21459;DHT22;10891;49.350;19.386;2023-06-01T02:53:06;5.50;99.90
21459;DHT22;10891;49.350;19.386;2023-06-01T02:55:33;5.50;99.90
21459;DHT22;10891;49.350;19.386;2023-06-01T02:58:00;5.60;99.90
21459;DHT22;10891;49.350;19.386;2023-06-01T03:00:27;5.60;99.90
21459;DHT22;10891;49.350;19.386;2023-06-01T03:02:54;5.70;99.90
21459;DHT22;10891;49.350;19.386;2023-06-01T03:05:21;5.70;99.90
21459;DHT22;10891;49.350;19.386;2023-06-01T03:07:48;5.70;99.90
21459;DHT22;10891;49.350;19.386;2023-06-01T03:10:16;5.70;99.90
21459;DHT22;10891;49.350;19.386;2023-06-01T03:12:43;5.70;99.90
21459;DHT22;10891;49.350;19.386;2023-06-01T03:15:10;5.90;99.90
21459;DHT22;10891;49.350;19.386;2023-06-01T03:17:37;6.00;99.90
21459;DHT22;10891;49.350;19.386;2023-06-01T03:20:05;6.20;99.90
21459;DHT22;10891;49.350;19.386;2023-06-01T03:22:40;6.30;99.90
21459;DHT22;10891;49.350;19.386;2023-06-01T03:25:08;6.50;99.90
21459;DHT22;10891;49.350;19.386;2023-06-01T03:27:42;6.60;99.90
21459;DHT22;10891;49.350;19.386;2023-06-01T03:30:10;6.80;99.90
21459;DHT22;10891;49.350;19.386;2023-06-01T03:32:37;6.90;99.90
21459;DHT22;10891;49.350;19.386;2023-06-01T03:35:05;7.00;99.90
21459;DHT22;10891;49.350;19.386;2023-06-01T03:37:33;7.20;99.90
21459;DHT22;10891;49.350;19.386;2023-06-01T03:40:01;9.10;99.90
21459;DHT22;10891;49.350;19.386;2023-06-01T03:42:35;10.90;99.90
21459;DHT22;10891;49.350;19.386;2023-06-01T03:45:05;10.40;99.90
21459;DHT22;10891;49.350;19.386;2023-06-01T03:47:32;11.70;99.90
21459;DHT22;10891;49.350;19.386;2023-06-01T03:49:59;13.90;99.90
21459;DHT22;10891;49.350;19.386;2023-06-01T03:52:26;15.70;99.90
21459;DHT22;10891;49.350;19.386;2023-06-01T03:54:54;17.00;99.90
21459;DHT22;10891;49.350;19.386;2023-06-01T03:57:21;18.10;98.20
21459;DHT22;10891;49.350;19.386;2023-06-01T03:59:48;19.00;96.60
21459;DHT22;10891;49.350;19.386;2023-06-01T04:02:17;19.50;96.00
21459;DHT22;10891;49.350;19.386;2023-06-01T04:04:45;20.10;94.70
21459;DHT22;10891;49.350;19.386;2023-06-01T04:07:13;20.60;94.00
21459;DHT22;10891;49.350;19.386;2023-06-01T04:09:43;20.40;94.80
21459;DHT22;10891;49.350;19.386;2023-06-01T04:12:12;21.10;93.70
21459;DHT22;10891;49.350;19.386;2023-06-01T04:14:39;21.60;92.90
21459;DHT22;10891;49.350;19.386;2023-06-01T04:17:06;22.30;92.00
21459;DHT22;10891;49.350;19.386;2023-06-01T04:19:35;22.90;91.30
21459;DHT22;10891;49.350;19.386;2023-06-01T04:22:02;23.70;90.60
21459;DHT22;10891;49.350;19.386;2023-06-01T04:24:29;24.30;89.20
21459;DHT22;10891;49.350;19.386;2023-06-01T04:26:56;24.30;88.60
21459;DHT22;10891;49.350;19.386;2023-06-01T04:29:24;24.90;87.20
21459;DHT22;10891;49.350;19.386;2023-06-01T04:31:51;24.90;86.50
21459;DHT22;10891;49.350;19.386;2023-06-01T04:34:20;24.60;86.10
21459;DHT22;10891;49.350;19.386;2023-06-01T04:36:50;23.30;90.20
21459;DHT22;10891;49.350;19.386;2023-06-01T04:39:18;24.00;89.20
21459;DHT22;10891;49.350;19.386;2023-06-01T04:41:45;25.00;86.50
21459;DHT22;10891;49.350;19.386;2023-06-01T04:44:12;26.00;84.10
21459;DHT22;10891;49.350;19.386;2023-06-01T04:46:39;26.70;82.70
21459;DHT22;10891;49.350;19.386;2023-06-01T04:49:07;26.50;83.20
21459;DHT22;10891;49.350;19.386;2023-06-01T04:51:38;26.60;82.80
21459;DHT22;10891;49.350;19.386;2023-06-01T04:54:07;26.40;82.80
21459;DHT22;10891;49.350;19.386;2023-06-01T04:56:35;26.50;83.40
21459;DHT22;10891;49.350;19.386;2023-06-01T04:59:02;26.80;81.90
21459;DHT22;10891;49.350;19.386;2023-06-01T05:01:31;26.70;82.30
21459;DHT22;10891;49.350;19.386;2023-06-01T05:03:58;26.40;82.70
21459;DHT22;10891;49.350;19.386;2023-06-01T05:06:26;26.80;82.40
21459;DHT22;10891;49.350;19.386;2023-06-01T05:08:53;26.20;83.10
21459;DHT22;10891;49.350;19.386;2023-06-01T05:11:21;26.40;82.50
21459;DHT22;10891;49.350;19.386;2023-06-01T05:13:49;25.90;84.10
21459;DHT22;10891;49.350;19.386;2023-06-01T05:16:23;26.40;82.90
21459;DHT22;10891;49.350;19.386;2023-06-01T05:18:51;26.80;82.40
21459;DHT22;10891;49.350;19.386;2023-06-01T05:21:18;27.20;82.20
21459;DHT22;10891;49.350;19.386;2023-06-01T05:23:45;27.30;81.30
21459;DHT22;10891;49.350;19.386;2023-06-01T05:26:12;26.60;82.40
21459;DHT22;10891;49.350;19.386;2023-06-01T05:28:40;27.20;81.60
21459;DHT22;10891;49.350;19.386;2023-06-01T05:31:07;26.80;82.60
21459;DHT22;10891;49.350;19.386;2023-06-01T05:33:35;26.80;82.70
21459;DHT22;10891;49.350;19.386;2023-06-01T05:36:03;27.40;82.10
21459;DHT22;10891;49.350;19.386;2023-06-01T05:38:30;27.30;81.30
21459;DHT22;10891;49.350;19.386;2023-06-01T05:40:57;27.10;81.60
21459;DHT22;10891;49.350;19.386;2023-06-01T05:43:24;27.00;82.70
21459;DHT22;10891;49.350;19.386;2023-06-01T05:45:52;26.70;84.20
21459;DHT22;10891;49.350;19.386;2023-06-01T05:48:19;27.30;83.00
21459;DHT22;10891;49.350;19.386;2023-06-01T05:50:46;27.20;83.60
21459;DHT22;10891;49.350;19.386;2023-06-01T05:53:13;27.00;83.10
21459;DHT22;10891;49.350;19.386;2023-06-01T05:55:40;27.10;83.30
21459;DHT22;10891;49.350;19.386;2023-06-01T05:58:07;27.50;83.60
21459;DHT22;10891;49.350;19.386;2023-06-01T06:00:34;28.40;81.20
21459;DHT22;10891;49.350;19.386;2023-06-01T06:03:03;29.70;78.60
21459;DHT22;10891;49.350;19.386;2023-06-01T06:05:30;30.50;77.70
21459;DHT22;10891;49.350;19.386;2023-06-01T06:07:57;30.50;77.80
21459;DHT22;10891;49.350;19.386;2023-06-01T06:10:24;30.70;77.10
21459;DHT22;10891;49.350;19.386;2023-06-01T06:12:51;31.90;75.30
21459;DHT22;10891;49.350;19.386;2023-06-01T06:15:18;31.70;74.60
21459;DHT22;10891;49.350;19.386;2023-06-01T06:17:45;31.40;74.90
21459;DHT22;10891;49.350;19.386;2023-06-01T06:20:13;30.90;75.40
21459;DHT22;10891;49.350;19.386;2023-06-01T06:22:41;29.80;78.50
21459;DHT22;10891;49.350;19.386;2023-06-01T06:25:09;29.30;79.20
21459;DHT22;10891;49.350;19.386;2023-06-01T06:27:37;28.80;79.20
21459;DHT22;10891;49.350;19.386;2023-06-01T06:30:05;28.40;80.40
21459;DHT22;10891;49.350;19.386;2023-06-01T06:32:32;27.70;81.60
21459;DHT22;10891;49.350;19.386;2023-06-01T06:35:00;27.50;82.40
21459;DHT22;10891;49.350;19.386;2023-06-01T06:37:29;27.80;82.50
21459;DHT22;10891;49.350;19.386;2023-06-01T06:39:56;29.10;80.50
21459;DHT22;10891;49.350;19.386;2023-06-01T06:42:24;29.20;82.20
21459;DHT22;10891;49.350;19.386;2023-06-01T06:44:51;29.40;81.40
21459;DHT22;10891;49.350;19.386;2023-06-01T06:47:18;29.90;79.30
21459;DHT22;10891;49.350;19.386;2023-06-01T06:49:45;29.30;80.40
21459;DHT22;10891;49.350;19.386;2023-06-01T06:52:12;28.70;81.60
21459;DHT22;10891;49.350;19.386;2023-06-01T06:54:42;27.80;83.10
21459;DHT22;10891;49.350;19.386;2023-06-01T06:57:09;27.50;84.40
21459;DHT22;10891;49.350;19.386;2023-06-01T06:59:38;27.10;86.60
21459;DHT22;10891;49.350;19.386;2023-06-01T07:02:05;27.00;86.80
21459;DHT22;10891;49.350;19.386;2023-06-01T07:04:32;26.80;84.20
21459;DHT22;10891;49.350;19.386;2023-06-01T07:06:59;27.20;86.30
21459;DHT22;10891;49.350;19.386;2023-06-01T07:09:29;27.10;86.70
21459;DHT22;10891;49.350;19.386;2023-06-01T07:11:57;27.80;86.60
21459;DHT22;10891;49.350;19.386;2023-06-01T07:14:24;28.00;85.00
21459;DHT22;10891;49.350;19.386;2023-06-01T07:16:51;27.10;84.80
21459;DHT22;10891;49.350;19.386;2023-06-01T07:19:18;26.80;85.60
21459;DHT22;10891;49.350;19.386;2023-06-01T07:21:45;26.20;87.90
21459;DHT22;10891;49.350;19.386;2023-06-01T07:24:12;25.60;89.10
21459;DHT22;10891;49.350;19.386;2023-06-01T07:26:39;25.60;88.20
21459;DHT22;10891;49.350;19.386;2023-06-01T07:29:08;26.00;86.20
21459;DHT22;10891;49.350;19.386;2023-06-01T07:31:35;26.40;85.90
21459;DHT22;10891;49.350;19.386;2023-06-01T07:34:04;26.30;84.30
21459;DHT22;10891;49.350;19.386;2023-06-01T07:36:31;26.70;84.20
21459;DHT22;10891;49.350;19.386;2023-06-01T07:39:03;26.90;85.40
21459;DHT22;10891;49.350;19.386;2023-06-01T07:41:32;26.40;86.10
21459;DHT22;10891;49.350;19.386;2023-06-01T07:43:59;26.50;88.50
21459;DHT22;10891;49.350;19.386;2023-06-01T07:46:27;24.70;91.30
21459;DHT22;10891;49.350;19.386;2023-06-01T07:48:55;24.70;90.70
21459;DHT22;10891;49.350;19.386;2023-06-01T07:51:22;25.00;90.60
21459;DHT22;10891;49.350;19.386;2023-06-01T07:53:49;24.10;90.30
21459;DHT22;10891;49.350;19.386;2023-06-01T07:56:16;24.20;90.80
21459;DHT22;10891;49.350;19.386;2023-06-01T07:58:44;23.60;91.30
21459;DHT22;10891;49.350;19.386;2023-06-01T08:01:11;22.60;90.60
21459;DHT22;10891;49.350;19.386;2023-06-01T08:03:43;22.40;91.60
21459;DHT22;10891;49.350;19.386;2023-06-01T08:06:10;22.50;92.60
21459;DHT22;10891;49.350;19.386;2023-06-01T08:08:38;22.60;92.80
21459;DHT22;10891;49.350;19.386;2023-06-01T08:11:06;22.60;92.40
21459;DHT22;10891;49.350;19.386;2023-06-01T08:13:34;22.50;92.50
21459;DHT22;10891;49.350;19.386;2023-06-01T08:16:01;22.40;92.90
21459;DHT22;10891;49.350;19.386;2023-06-01T08:18:29;22.50;92.30
21459;DHT22;10891;49.350;19.386;2023-06-01T08:20:57;22.40;92.60
21459;DHT22;10891;49.350;19.386;2023-06-01T08:23:25;22.40;92.50
21459;DHT22;10891;49.350;19.386;2023-06-01T08:25:52;22.50;92.30
21459;DHT22;10891;49.350;19.386;2023-06-01T08:28:19;22.30;92.40
21459;DHT22;10891;49.350;19.386;2023-06-01T08:30:47;22.50;92.40
21459;DHT22;10891;49.350;19.386;2023-06-01T08:33:14;22.60;91.70
21459;DHT22;10891;49.350;19.386;2023-06-01T08:35:41;22.70;92.20
21459;DHT22;10891;49.350;19.386;2023-06-01T08:38:10;22.40;91.40
21459;DHT22;10891;49.350;19.386;2023-06-01T08:40:37;22.50;92.70
21459;DHT22;10891;49.350;19.386;2023-06-01T08:43:12;22.50;92.00
21459;DHT22;10891;49.350;19.386;2023-06-01T08:45:41;22.70;92.20
21459;DHT22;10891;49.350;19.386;2023-06-01T08:48:09;22.30;91.50
21459;DHT22;10891;49.350;19.386;2023-06-01T08:50:41;22.50;91.60
21459;DHT22;10891;49.350;19.386;2023-06-01T08:53:11;22.70;92.20
21459;DHT22;10891;49.350;19.386;2023-06-01T08:55:38;22.70;91.30
21459;DHT22;10891;49.350;19.386;2023-06-01T08:58:05;22.40;91.50
21459;DHT22;10891;49.350;19.386;2023-06-01T09:00:32;22.30;92.30
21459;DHT22;10891;49.350;19.386;2023-06-01T09:03:00;22.30;93.00
21459;DHT22;10891;49.350;19.386;2023-06-01T09:05:27;22.50;92.60
21459;DHT22;10891;49.350;19.386;2023-06-01T09:07:54;22.50;92.70
21459;DHT22;10891;49.350;19.386;2023-06-01T09:10:27;22.40;93.00
21459;DHT22;10891;49.350;19.386;2023-06-01T09:12:55;22.70;92.70
21459;DHT22;10891;49.350;19.386;2023-06-01T09:15:22;22.90;91.60
21459;DHT22;10891;49.350;19.386;2023-06-01T09:17:52;23.00;90.80
21459;DHT22;10891;49.350;19.386;2023-06-01T09:20:24;22.90;91.50
21459;DHT22;10891;49.350;19.386;2023-06-01T09:22:51;23.10;91.00
21459;DHT22;10891;49.350;19.386;2023-06-01T09:25:24;23.00;92.40
21459;DHT22;10891;49.350;19.386;2023-06-01T09:27:55;23.10;91.50
21459;DHT22;10891;49.350;19.386;2023-06-01T09:30:23;23.30;91.60
21459;DHT22;10891;49.350;19.386;2023-06-01T09:32:50;23.40;90.30
21459;DHT22;10891;49.350;19.386;2023-06-01T09:35:37;23.50;90.20
21459;DHT22;10891;49.350;19.386;2023-06-01T09:38:04;23.60;90.50
21459;DHT22;10891;49.350;19.386;2023-06-01T09:40:32;23.80;90.90
21459;DHT22;10891;49.350;19.386;2023-06-01T09:43:01;24.00;91.10
21459;DHT22;10891;49.350;19.386;2023-06-01T09:45:30;24.00;88.00
21459;DHT22;10891;49.350;19.386;2023-06-01T09:48:15;24.00;89.40
21459;DHT22;10891;49.350;19.386;2023-06-01T09:50:42;24.20;89.80
21459;DHT22;10891;49.350;19.386;2023-06-01T09:53:09;24.30;89.30
21459;DHT22;10891;49.350;19.386;2023-06-01T09:55:36;24.10;88.70
21459;DHT22;10891;49.350;19.386;2023-06-01T09:58:20;24.20;87.30
21459;DHT22;10891;49.350;19.386;2023-06-01T10:00:48;23.90;89.90
21459;DHT22;10891;49.350;19.386;2023-06-01T10:03:16;24.00;88.80
21459;DHT22;10891;49.350;19.386;2023-06-01T10:05:43;24.20;89.50
21459;DHT22;10891;49.350;19.386;2023-06-01T10:08:11;24.20;90.10
21459;DHT22;10891;49.350;19.386;2023-06-01T10:10:40;23.40;89.50
21459;DHT22;10891;49.350;19.386;2023-06-01T10:13:08;23.30;90.10
21459;DHT22;10891;49.350;19.386;2023-06-01T10:15:37;23.50;89.40
21459;DHT22;10891;49.350;19.386;2023-06-01T10:18:04;23.70;91.10
21459;DHT22;10891;49.350;19.386;2023-06-01T10:20:32;23.90;89.20
21459;DHT22;10891;49.350;19.386;2023-06-01T10:23:01;24.20;90.10
21459;DHT22;10891;49.350;19.386;2023-06-01T10:25:31;24.40;89.30
21459;DHT22;10891;49.350;19.386;2023-06-01T10:28:02;24.50;88.00
21459;DHT22;10891;49.350;19.386;2023-06-01T10:30:29;24.70;87.70
21459;DHT22;10891;49.350;19.386;2023-06-01T10:32:57;24.80;86.60
21459;DHT22;10891;49.350;19.386;2023-06-01T10:38:31;24.70;84.00
21459;DHT22;10891;49.350;19.386;2023-06-01T10:41:31;24.70;86.20
21459;DHT22;10891;49.350;19.386;2023-06-01T10:43:58;24.70;87.80
21459;DHT22;10891;49.350;19.386;2023-06-01T10:49:12;25.00;87.40
21459;DHT22;10891;49.350;19.386;2023-06-01T10:51:39;25.00;84.70
21459;DHT22;10891;49.350;19.386;2023-06-01T10:54:26;24.90;87.60
21459;DHT22;10891;49.350;19.386;2023-06-01T10:57:18;24.90;86.60
21459;DHT22;10891;49.350;19.386;2023-06-01T11:00:09;24.80;85.40
21459;DHT22;10891;49.350;19.386;2023-06-01T11:02:52;24.80;88.30
21459;DHT22;10891;49.350;19.386;2023-06-01T11:05:44;25.10;87.80
21459;DHT22;10891;49.350;19.386;2023-06-01T11:08:50;25.40;86.00
21459;DHT22;10891;49.350;19.386;2023-06-01T11:11:18;25.60;85.70
21459;DHT22;10891;49.350;19.386;2023-06-01T11:14:05;25.80;83.80
21459;DHT22;10891;49.350;19.386;2023-06-01T11:16:34;25.70;85.00
21459;DHT22;10891;49.350;19.386;2023-06-01T11:19:05;25.60;82.20
21459;DHT22;10891;49.350;19.386;2023-06-01T11:21:38;25.70;82.10
21459;DHT22;10891;49.350;19.386;2023-06-01T11:24:12;25.80;80.70
21459;DHT22;10891;49.350;19.386;2023-06-01T11:26:41;25.70;78.40
21459;DHT22;10891;49.350;19.386;2023-06-01T11:29:10;25.80;83.90
21459;DHT22;10891;49.350;19.386;2023-06-01T11:31:41;25.90;79.70
21459;DHT22;10891;49.350;19.386;2023-06-01T11:34:10;25.90;81.50
21459;DHT22;10891;49.350;19.386;2023-06-01T11:36:41;25.60;81.00
21459;DHT22;10891;49.350;19.386;2023-06-01T11:39:19;25.50;78.40
21459;DHT22;10891;49.350;19.386;2023-06-01T11:41:49;25.50;79.00
21459;DHT22;10891;49.350;19.386;2023-06-01T11:44:16;25.70;79.40
21459;DHT22;10891;49.350;19.386;2023-06-01T11:46:50;25.80;80.80
21459;DHT22;10891;49.350;19.386;2023-06-01T11:49:18;26.00;78.60
21459;DHT22;10891;49.350;19.386;2023-06-01T11:51:47;25.80;77.20
21459;DHT22;10891;49.350;19.386;2023-06-01T11:54:16;25.80;78.00
21459;DHT22;10891;49.350;19.386;2023-06-01T11:56:47;25.80;76.80
21459;DHT22;10891;49.350;19.386;2023-06-01T11:59:14;25.70;76.20
21459;DHT22;10891;49.350;19.386;2023-06-01T12:01:43;25.60;77.40
21459;DHT22;10891;49.350;19.386;2023-06-01T12:04:12;25.60;81.20
21459;DHT22;10891;49.350;19.386;2023-06-01T12:06:39;25.20;76.00
21459;DHT22;10891;49.350;19.386;2023-06-01T12:09:08;25.30;78.50
21459;DHT22;10891;49.350;19.386;2023-06-01T12:11:36;25.40;75.60
21459;DHT22;10891;49.350;19.386;2023-06-01T12:14:04;25.50;75.40
21459;DHT22;10891;49.350;19.386;2023-06-01T12:16:54;25.40;75.70
21459;DHT22;10891;49.350;19.386;2023-06-01T12:19:22;25.20;74.90
21459;DHT22;10891;49.350;19.386;2023-06-01T12:21:49;25.30;73.30
21459;DHT22;10891;49.350;19.386;2023-06-01T12:24:18;25.60;77.70
21459;DHT22;10891;49.350;19.386;2023-06-01T12:26:45;25.90;77.30
21459;DHT22;10891;49.350;19.386;2023-06-01T12:29:12;26.10;78.00
21459;DHT22;10891;49.350;19.386;2023-06-01T12:31:39;26.20;76.40
21459;DHT22;10891;49.350;19.386;2023-06-01T12:34:17;26.30;76.30
21459;DHT22;10891;49.350;19.386;2023-06-01T12:36:44;26.30;75.50
21459;DHT22;10891;49.350;19.386;2023-06-01T12:39:11;26.30;78.60
21459;DHT22;10891;49.350;19.386;2023-06-01T12:41:48;26.30;77.80
21459;DHT22;10891;49.350;19.386;2023-06-01T12:44:19;26.30;75.90
21459;DHT22;10891;49.350;19.386;2023-06-01T12:46:46;26.40;75.50
21459;DHT22;10891;49.350;19.386;2023-06-01T12:49:14;26.40;73.60
21459;DHT22;10891;49.350;19.386;2023-06-01T12:51:43;26.50;76.60
21459;DHT22;10891;49.350;19.386;2023-06-01T12:54:10;26.50;76.90
21459;DHT22;10891;49.350;19.386;2023-06-01T12:56:37;26.60;75.70
21459;DHT22;10891;49.350;19.386;2023-06-01T12:59:05;26.40;77.00
21459;DHT22;10891;49.350;19.386;2023-06-01T13:01:33;25.90;76.90
21459;DHT22;10891;49.350;19.386;2023-06-01T13:04:00;25.50;77.90
21459;DHT22;10891;49.350;19.386;2023-06-01T13:06:28;25.40;78.10
21459;DHT22;10891;49.350;19.386;2023-06-01T13:08:55;25.70;79.10
21459;DHT22;10891;49.350;19.386;2023-06-01T13:11:23;25.50;74.70
21459;DHT22;10891;49.350;19.386;2023-06-01T13:13:50;25.20;76.00
21459;DHT22;10891;49.350;19.386;2023-06-01T13:16:18;25.00;77.70
21459;DHT22;10891;49.350;19.386;2023-06-01T13:18:45;25.10;78.70
21459;DHT22;10891;49.350;19.386;2023-06-01T13:21:13;24.70;78.80
21459;DHT22;10891;49.350;19.386;2023-06-01T13:23:40;24.80;79.30
21459;DHT22;10891;49.350;19.386;2023-06-01T13:26:07;24.50;80.00
21459;DHT22;10891;49.350;19.386;2023-06-01T13:28:35;24.30;80.00
21459;DHT22;10891;49.350;19.386;2023-06-01T13:31:02;24.00;80.40
21459;DHT22;10891;49.350;19.386;2023-06-01T13:33:30;23.80;80.50
21459;DHT22;10891;49.350;19.386;2023-06-01T13:35:58;23.80;81.30
21459;DHT22;10891;49.350;19.386;2023-06-01T13:38:25;23.80;83.30
21459;DHT22;10891;49.350;19.386;2023-06-01T13:40:53;23.70;84.00
21459;DHT22;10891;49.350;19.386;2023-06-01T13:43:20;23.60;82.80
21459;DHT22;10891;49.350;19.386;2023-06-01T13:45:46;23.50;83.80
21459;DHT22;10891;49.350;19.386;2023-06-01T13:48:13;23.60;84.60
21459;DHT22;10891;49.350;19.386;2023-06-01T13:50:42;24.00;86.50
21459;DHT22;10891;49.350;19.386;2023-06-01T13:53:09;24.10;83.20
21459;DHT22;10891;49.350;19.386;2023-06-01T13:55:36;24.20;83.20
21459;DHT22;10891;49.350;19.386;2023-06-01T13:58:04;24.20;83.30
21459;DHT22;10891;49.350;19.386;2023-06-01T14:00:31;24.20;83.60
21459;DHT22;10891;49.350;19.386;2023-06-01T14:02:58;24.00;82.00
21459;DHT22;10891;49.350;19.386;2023-06-01T14:05:25;24.30;81.60
21459;DHT22;10891;49.350;19.386;2023-06-01T14:07:53;24.40;82.60
21459;DHT22;10891;49.350;19.386;2023-06-01T14:10:20;24.50;83.40
21459;DHT22;10891;49.350;19.386;2023-06-01T14:12:47;24.70;84.60
21459;DHT22;10891;49.350;19.386;2023-06-01T14:15:14;24.70;84.70
21459;DHT22;10891;49.350;19.386;2023-06-01T14:17:41;24.80;85.50
21459;DHT22;10891;49.350;19.386;2023-06-01T14:20:09;24.80;86.10
21459;DHT22;10891;49.350;19.386;2023-06-01T14:22:36;24.80;85.10
21459;DHT22;10891;49.350;19.386;2023-06-01T14:25:05;24.70;84.80
21459;DHT22;10891;49.350;19.386;2023-06-01T14:27:32;24.90;82.40
21459;DHT22;10891;49.350;19.386;2023-06-01T14:29:59;25.40;81.40
21459;DHT22;10891;49.350;19.386;2023-06-01T14:32:28;25.30;80.00
21459;DHT22;10891;49.350;19.386;2023-06-01T14:34:55;25.70;78.70
21459;DHT22;10891;49.350;19.386;2023-06-01T14:37:22;25.90;78.00
21459;DHT22;10891;49.350;19.386;2023-06-01T14:39:49;26.10;77.90
21459;DHT22;10891;49.350;19.386;2023-06-01T14:42:17;25.80;78.80
21459;DHT22;10891;49.350;19.386;2023-06-01T14:44:44;26.00;80.10
21459;DHT22;10891;49.350;19.386;2023-06-01T14:47:11;26.00;77.70
21459;DHT22;10891;49.350;19.386;2023-06-01T14:49:39;25.80;76.20
21459;DHT22;10891;49.350;19.386;2023-06-01T14:52:06;25.60;74.90
21459;DHT22;10891;49.350;19.386;2023-06-01T14:54:33;25.70;77.10
21459;DHT22;10891;49.350;19.386;2023-06-01T14:57:00;25.70;77.40
21459;DHT22;10891;49.350;19.386;2023-06-01T14:59:28;25.60;75.30
21459;DHT22;10891;49.350;19.386;2023-06-01T15:01:55;25.40;77.00
21459;DHT22;10891;49.350;19.386;2023-06-01T15:04:23;25.40;75.60
21459;DHT22;10891;49.350;19.386;2023-06-01T15:06:50;25.20;76.00
21459;DHT22;10891;49.350;19.386;2023-06-01T15:09:17;25.10;79.30
21459;DHT22;10891;49.350;19.386;2023-06-01T15:11:44;25.20;78.00
21459;DHT22;10891;49.350;19.386;2023-06-01T15:14:11;25.00;75.40
21459;DHT22;10891;49.350;19.386;2023-06-01T15:16:39;24.90;76.50
21459;DHT22;10891;49.350;19.386;2023-06-01T15:19:07;24.90;76.80
21459;DHT22;10891;49.350;19.386;2023-06-01T15:21:34;25.20;78.50
21459;DHT22;10891;49.350;19.386;2023-06-01T15:24:01;25.10;76.00
21459;DHT22;10891;49.350;19.386;2023-06-01T15:26:28;25.00;77.60
21459;DHT22;10891;49.350;19.386;2023-06-01T15:28:55;25.10;78.40
21459;DHT22;10891;49.350;19.386;2023-06-01T15:31:22;25.00;76.00
21459;DHT22;10891;49.350;19.386;2023-06-01T15:33:51;25.00;76.90
21459;DHT22;10891;49.350;19.386;2023-06-01T15:36:18;24.90;76.40